createdAt,value
2024-01-20T00:00:28.582Z,18.85
2024-01-20T00:02:56.123Z,19.60
2024-01-20T00:05:23.748Z,16.60
2024-01-20T00:07:51.319Z,17.88
2024-01-20T00:10:18.710Z,22.25
2024-01-20T00:12:46.059Z,17.95
2024-01-20T00:15:13.723Z,17.92
2024-01-20T00:17:42.619Z,22.48
2024-01-20T00:20:11.178Z,21.85
2024-01-20T00:22:39.191Z,23.20
2024-01-20T00:25:07.765Z,21.63
2024-01-20T00:27:35.563Z,21.30
2024-01-20T00:30:04.509Z,24.30
2024-01-20T00:32:32.473Z,22.75
2024-01-20T00:35:06.728Z,21.95
2024-01-20T00:37:38.379Z,19.33
2024-01-20T00:40:07.723Z,24.83
2024-01-20T00:42:35.952Z,23.52
2024-01-20T00:45:04.653Z,19.95
2024-01-20T00:47:32.187Z,21.17
2024-01-20T00:49:59.796Z,21.13
2024-01-20T00:52:27.470Z,31.55
2024-01-20T00:54:54.799Z,20.33
2024-01-20T00:57:22.159Z,17.65
2024-01-20T00:59:50.007Z,18.45
2024-01-20T01:02:18.515Z,18.80
2024-01-20T01:04:46.547Z,23.80
2024-01-20T01:07:13.991Z,22.63
2024-01-20T01:09:41.313Z,22.98
2024-01-20T01:12:09.357Z,21.85
2024-01-20T01:14:36.890Z,20.40
2024-01-20T01:17:04.446Z,21.50
2024-01-20T01:19:31.851Z,27.20
2024-01-20T01:21:59.566Z,22.25
2024-01-20T01:24:26.972Z,26.77
2024-01-20T01:26:54.315Z,17.38
2024-01-20T01:29:21.785Z,21.23
2024-01-20T01:31:49.216Z,22.30
2024-01-20T01:34:16.685Z,27.30
2024-01-20T01:36:44.553Z,20.52
2024-01-20T01:39:12.249Z,27.98
2024-01-20T01:41:39.591Z,22.10
2024-01-20T01:44:06.857Z,24.90
2024-01-20T01:46:34.417Z,26.08
2024-01-20T01:49:02.512Z,22.05
2024-01-20T01:51:30.248Z,26.10
2024-01-20T01:53:59.864Z,18.48
2024-01-20T01:56:27.746Z,21.20
2024-01-20T01:58:56.454Z,25.52
2024-01-20T02:01:24.085Z,26.15
2024-01-20T02:03:51.954Z,22.55
2024-01-20T02:06:19.815Z,24.25
2024-01-20T02:08:47.271Z,20.20
2024-01-20T02:11:15.901Z,24.50
2024-01-20T02:13:43.687Z,23.02
2024-01-20T02:16:11.140Z,25.00
2024-01-20T02:18:38.647Z,19.02
2024-01-20T02:21:07.356Z,22.88
2024-01-20T02:23:42.651Z,23.48
2024-01-20T02:26:10.067Z,28.17
2024-01-20T02:28:39.164Z,27.23
2024-01-20T02:31:06.470Z,24.20
2024-01-20T02:33:34.033Z,25.20
2024-01-20T02:36:01.452Z,24.65
2024-01-20T02:38:28.999Z,26.00
2024-01-20T02:40:56.281Z,27.42
2024-01-20T02:43:23.798Z,26.33
2024-01-20T02:45:51.150Z,30.33
2024-01-20T02:48:19.335Z,20.73
2024-01-20T02:50:46.722Z,24.23
2024-01-20T02:53:14.016Z,21.55
2024-01-20T02:55:41.428Z,27.17
2024-01-20T02:58:08.765Z,25.48
2024-01-20T03:00:36.106Z,24.50
2024-01-20T03:03:03.679Z,24.85
2024-01-20T03:05:31.115Z,23.58
2024-01-20T03:07:58.398Z,23.30
2024-01-20T03:10:25.734Z,26.52
2024-01-20T03:12:53.095Z,22.02
2024-01-20T03:15:20.689Z,24.63
2024-01-20T03:17:48.764Z,31.88
2024-01-20T03:20:16.123Z,28.13
2024-01-20T03:22:43.429Z,29.25
2024-01-20T03:25:11.057Z,26.25
2024-01-20T03:27:38.362Z,25.65
2024-01-20T03:30:06.447Z,26.08
2024-01-20T03:32:33.869Z,25.38
2024-01-20T03:35:01.361Z,28.23
2024-01-20T03:37:30.791Z,20.55
2024-01-20T03:39:58.085Z,23.65
2024-01-20T03:42:25.371Z,23.27
2024-01-20T03:44:52.824Z,24.63
2024-01-20T03:47:20.180Z,24.20
2024-01-20T03:49:47.687Z,24.55
2024-01-20T03:52:15.171Z,22.30
2024-01-20T03:54:43.666Z,27.15
2024-01-20T03:57:12.587Z,23.58
2024-01-20T03:59:42.588Z,34.28
2024-01-20T04:02:09.918Z,23.05
2024-01-20T04:04:40.207Z,23.50
2024-01-20T04:07:07.647Z,21.88
2024-01-20T04:09:34.984Z,31.95
2024-01-20T04:12:02.503Z,30.75
2024-01-20T04:14:29.840Z,23.90
2024-01-20T04:16:57.240Z,24.98
2024-01-20T04:19:24.953Z,26.20
2024-01-20T04:21:52.265Z,24.83
2024-01-20T04:24:19.603Z,25.85
2024-01-20T04:26:46.984Z,27.00
2024-01-20T04:29:14.244Z,24.00
2024-01-20T04:31:41.509Z,26.20
2024-01-20T04:34:08.946Z,18.80
2024-01-20T04:36:36.397Z,25.20
2024-01-20T04:39:03.815Z,29.05
2024-01-20T04:41:31.056Z,25.67
2024-01-20T04:43:58.369Z,21.10
2024-01-20T04:46:25.657Z,20.70
2024-01-20T04:48:53.176Z,19.48
2024-01-20T04:51:23.291Z,19.50
2024-01-20T04:53:52.153Z,19.75
2024-01-20T04:56:24.168Z,21.83
2024-01-20T04:58:52.897Z,20.35
2024-01-20T05:01:20.193Z,24.48
2024-01-20T05:03:47.765Z,21.63
2024-01-20T05:06:15.670Z,19.15
2024-01-20T05:08:42.945Z,23.13
2024-01-20T05:11:10.556Z,27.88
2024-01-20T05:13:38.025Z,24.65
2024-01-20T05:16:05.644Z,19.23
2024-01-20T05:18:33.246Z,25.90
2024-01-20T05:21:00.721Z,25.75
2024-01-20T05:23:28.165Z,21.45
2024-01-20T05:25:55.398Z,22.48
2024-01-20T05:28:22.805Z,21.92
2024-01-20T05:30:50.501Z,20.17
2024-01-20T05:33:18.030Z,24.17
2024-01-20T05:35:45.457Z,20.05
2024-01-20T05:38:12.965Z,26.15
2024-01-20T05:40:40.870Z,18.23
2024-01-20T05:43:08.259Z,22.25
2024-01-20T05:45:35.681Z,20.52
2024-01-20T05:48:03.255Z,26.67
2024-01-20T05:50:30.828Z,21.65
2024-01-20T05:52:58.323Z,26.80
2024-01-20T05:55:25.664Z,23.92
2024-01-20T05:57:53.999Z,26.88
2024-01-20T06:00:23.548Z,20.55
2024-01-20T06:02:50.997Z,22.73
2024-01-20T06:05:18.384Z,20.20
2024-01-20T06:07:45.692Z,16.65
2024-01-20T06:10:13.122Z,22.55
2024-01-20T06:12:40.317Z,20.08
2024-01-20T06:15:08.340Z,17.40
2024-01-20T06:17:35.650Z,19.80
2024-01-20T06:20:05.189Z,21.92
2024-01-20T06:22:32.706Z,19.17
2024-01-20T06:25:00.100Z,18.35
2024-01-20T06:27:27.416Z,18.40
2024-01-20T06:29:54.868Z,21.05
2024-01-20T06:32:22.273Z,24.75
2024-01-20T06:34:49.620Z,20.27
2024-01-20T06:37:16.971Z,23.23
2024-01-20T06:39:44.333Z,15.60
2024-01-20T06:42:13.687Z,21.50
2024-01-20T06:44:41.164Z,16.25
2024-01-20T06:47:08.643Z,22.50
2024-01-20T06:49:39.196Z,20.25
2024-01-20T06:52:06.908Z,22.52
2024-01-20T06:54:34.382Z,17.52
2024-01-20T06:57:01.773Z,18.73
2024-01-20T06:59:29.077Z,20.38
2024-01-20T07:01:56.351Z,20.30
2024-01-20T07:04:23.796Z,20.35
2024-01-20T07:06:51.169Z,21.40
2024-01-20T07:09:18.651Z,21.90
2024-01-20T07:11:46.972Z,20.35
2024-01-20T07:14:14.528Z,18.67
2024-01-20T07:16:42.017Z,16.90
2024-01-20T07:19:09.440Z,24.42
2024-01-20T07:21:37.000Z,24.88
2024-01-20T07:24:06.191Z,24.58
2024-01-20T07:26:33.673Z,26.58
2024-01-20T07:29:01.270Z,21.27
2024-01-20T07:31:28.583Z,19.40
2024-01-20T07:33:56.088Z,17.55
2024-01-20T07:36:23.741Z,24.27
2024-01-20T07:38:51.076Z,20.33
2024-01-20T07:41:20.113Z,18.10
2024-01-20T07:43:47.497Z,19.52
2024-01-20T07:46:14.886Z,24.20
2024-01-20T07:48:44.274Z,17.90
2024-01-20T07:51:12.286Z,19.63
2024-01-20T07:53:39.669Z,19.80
2024-01-20T07:56:10.752Z,17.63
2024-01-20T07:58:38.135Z,16.30
2024-01-20T08:01:05.649Z,16.80
2024-01-20T08:03:33.503Z,19.83
2024-01-20T08:06:01.861Z,16.92
2024-01-20T08:08:29.323Z,20.42
2024-01-20T08:10:56.710Z,21.15
2024-01-20T08:13:24.217Z,20.52
2024-01-20T08:15:51.607Z,15.80
2024-01-20T08:18:19.062Z,21.08
2024-01-20T08:20:46.863Z,19.35
2024-01-20T08:23:14.245Z,21.20
2024-01-20T08:25:41.740Z,24.85
2024-01-20T08:28:09.056Z,19.90
2024-01-20T08:30:36.424Z,19.33
2024-01-20T08:33:05.486Z,19.25
2024-01-20T08:35:34.045Z,21.55
2024-01-20T08:38:01.359Z,19.50
2024-01-20T08:40:29.731Z,19.45
2024-01-20T08:42:57.198Z,20.40
2024-01-20T08:45:24.519Z,20.45
2024-01-20T08:47:51.973Z,17.85
2024-01-20T08:50:19.681Z,19.27
2024-01-20T08:52:47.890Z,23.02
2024-01-20T08:55:15.257Z,19.17
2024-01-20T08:57:42.873Z,21.08
2024-01-20T09:00:13.111Z,21.08
2024-01-20T09:02:40.777Z,22.52
2024-01-20T09:05:12.517Z,18.48
2024-01-20T09:07:40.429Z,18.27
2024-01-20T09:10:09.300Z,19.42
2024-01-20T09:12:36.765Z,15.80
2024-01-20T09:15:04.338Z,22.90
2024-01-20T09:17:31.722Z,18.20
2024-01-20T09:19:59.528Z,19.92
2024-01-20T09:22:27.112Z,19.20
2024-01-20T09:24:54.518Z,21.73
2024-01-20T09:27:24.283Z,23.95
2024-01-20T09:29:52.757Z,20.77
2024-01-20T09:32:21.076Z,22.65
2024-01-20T09:34:51.141Z,23.10
2024-01-20T09:37:18.478Z,20.77
2024-01-20T09:39:46.275Z,19.73
2024-01-20T09:42:23.233Z,22.40
2024-01-20T09:44:54.408Z,21.83
2024-01-20T09:47:21.944Z,22.80
2024-01-20T09:49:49.633Z,22.48
2024-01-20T09:52:20.934Z,21.42
2024-01-20T09:55:10.780Z,21.77
2024-01-20T09:57:40.512Z,21.10
2024-01-20T10:00:09.916Z,20.70
2024-01-20T10:02:38.858Z,18.50
2024-01-20T10:05:12.205Z,22.98
2024-01-20T10:07:41.276Z,17.88
2024-01-20T10:10:10.948Z,22.80
2024-01-20T10:12:38.460Z,21.60
2024-01-20T10:15:06.422Z,20.45
2024-01-20T10:17:39.847Z,20.88
2024-01-20T10:20:07.875Z,22.27
2024-01-20T10:22:35.589Z,20.83
2024-01-20T10:25:02.907Z,21.10
2024-01-20T10:27:30.627Z,23.33
2024-01-20T10:29:58.058Z,23.58
2024-01-20T10:32:25.656Z,22.55
2024-01-20T10:34:53.043Z,25.08
2024-01-20T10:37:25.639Z,22.02
2024-01-20T10:39:56.432Z,20.95
2024-01-20T10:42:36.706Z,21.73
2024-01-20T10:45:16.734Z,23.30
2024-01-20T10:48:00.322Z,26.27
2024-01-20T10:50:28.145Z,20.75
2024-01-20T10:52:56.605Z,21.60
2024-01-20T10:55:25.058Z,26.20
2024-01-20T10:57:53.553Z,24.50
2024-01-20T11:00:22.002Z,24.88
2024-01-20T11:02:50.233Z,23.67
2024-01-20T11:05:23.152Z,24.55
2024-01-20T11:08:06.813Z,20.80
2024-01-20T11:10:46.572Z,25.88
2024-01-20T11:13:16.402Z,24.27
2024-01-20T11:15:49.798Z,24.73
2024-01-20T11:18:28.798Z,22.60
2024-01-20T11:21:03.827Z,24.58
2024-01-20T11:23:32.137Z,23.88
2024-01-20T11:26:10.839Z,22.75
2024-01-20T11:28:38.293Z,26.60
2024-01-20T11:31:07.718Z,21.77
2024-01-20T11:33:37.693Z,23.88
2024-01-20T11:36:05.409Z,21.70
2024-01-20T11:38:33.699Z,21.80
2024-01-20T11:41:03.235Z,21.38
2024-01-20T11:43:31.013Z,22.80
2024-01-20T11:45:58.784Z,22.33
2024-01-20T11:48:30.199Z,22.48
2024-01-20T11:50:57.510Z,24.65
2024-01-20T11:53:24.974Z,20.23
2024-01-20T11:56:00.097Z,22.50
2024-01-20T11:58:28.620Z,20.30
2024-01-20T12:00:58.557Z,21.25
2024-01-20T12:03:28.541Z,19.90
2024-01-20T12:05:57.551Z,20.80
2024-01-20T12:08:25.110Z,17.95
2024-01-20T12:10:54.702Z,18.92
2024-01-20T12:13:23.074Z,18.60
2024-01-20T12:15:51.507Z,19.77
2024-01-20T12:18:19.373Z,20.25
2024-01-20T12:20:47.038Z,19.83
2024-01-20T12:23:23.602Z,18.85
2024-01-20T12:26:00.874Z,16.40
2024-01-20T12:28:28.071Z,19.95
2024-01-20T12:30:55.332Z,19.30
2024-01-20T12:33:25.339Z,16.98
2024-01-20T12:35:53.004Z,21.75
2024-01-20T12:38:20.490Z,22.55
2024-01-20T12:40:48.292Z,18.80
2024-01-20T12:43:16.091Z,18.77
2024-01-20T12:45:44.149Z,22.70
2024-01-20T12:48:12.261Z,17.35
2024-01-20T12:50:40.179Z,18.45
2024-01-20T12:53:08.097Z,18.88
2024-01-20T12:55:35.640Z,19.73
2024-01-20T12:58:03.404Z,18.42
2024-01-20T13:00:30.871Z,21.08
2024-01-20T13:02:58.193Z,19.80
2024-01-20T13:05:25.644Z,23.13
2024-01-20T13:07:52.958Z,18.80
2024-01-20T13:10:20.378Z,17.65
2024-01-20T13:12:47.888Z,22.33
2024-01-20T13:15:15.465Z,18.38
2024-01-20T13:17:42.916Z,19.35
2024-01-20T13:20:11.556Z,18.77
2024-01-20T13:22:38.999Z,19.25
2024-01-20T13:25:07.031Z,17.85
2024-01-20T13:27:34.390Z,17.48
2024-01-20T13:30:01.672Z,20.48
2024-01-20T13:32:28.935Z,19.58
2024-01-20T13:34:56.216Z,20.02
2024-01-20T13:37:25.175Z,17.33
2024-01-20T13:39:52.829Z,19.45
2024-01-20T13:42:20.261Z,17.88
2024-01-20T13:44:48.886Z,14.75
2024-01-20T13:47:16.063Z,19.65
2024-01-20T13:49:44.010Z,19.30
2024-01-20T13:52:11.262Z,18.50
2024-01-20T13:54:41.321Z,19.20
2024-01-20T13:57:08.854Z,17.27
2024-01-20T13:59:36.428Z,19.33
2024-01-20T14:02:04.629Z,17.92
2024-01-20T14:04:32.024Z,20.25
2024-01-20T14:07:05.400Z,17.73
2024-01-20T14:09:33.235Z,21.35
2024-01-20T14:12:00.695Z,24.27
2024-01-20T14:14:28.284Z,18.10
2024-01-20T14:16:59.350Z,21.63
2024-01-20T14:19:28.442Z,18.33
2024-01-20T14:21:57.496Z,19.85
2024-01-20T14:24:24.865Z,20.10
2024-01-20T14:26:52.380Z,17.10
2024-01-20T14:29:20.379Z,17.23
2024-01-20T14:31:52.039Z,16.85
2024-01-20T14:34:22.879Z,17.05
2024-01-20T14:36:52.803Z,19.40
2024-01-20T14:39:20.351Z,15.85
2024-01-20T14:41:47.980Z,18.80
2024-01-20T14:44:15.915Z,21.95
2024-01-20T14:46:43.965Z,20.77
2024-01-20T14:49:11.871Z,18.30
2024-01-20T14:51:40.166Z,18.75
2024-01-20T14:54:07.523Z,18.70
2024-01-20T14:56:37.332Z,18.33
2024-01-20T14:59:05.199Z,18.23
2024-01-20T15:01:33.118Z,17.58
2024-01-20T15:04:00.863Z,15.10
2024-01-20T15:06:30.091Z,17.25
2024-01-20T15:08:57.809Z,25.75
2024-01-20T15:11:26.050Z,18.23
2024-01-20T15:13:53.358Z,18.42
2024-01-20T15:16:20.757Z,17.88
2024-01-20T15:18:48.264Z,18.55
2024-01-20T15:21:16.687Z,14.77
2024-01-20T15:23:44.124Z,18.48
2024-01-20T15:26:16.850Z,17.85
2024-01-20T15:28:44.836Z,16.05
2024-01-20T15:31:12.413Z,16.98
2024-01-20T15:33:40.254Z,17.65
2024-01-20T15:36:08.004Z,18.00
2024-01-20T15:38:36.200Z,15.32
2024-01-20T15:41:03.536Z,18.10
2024-01-20T15:43:31.081Z,22.27
2024-01-20T15:45:58.364Z,16.25
2024-01-20T15:48:25.922Z,17.60
2024-01-20T15:50:53.429Z,15.23
2024-01-20T15:53:20.814Z,15.68
2024-01-20T15:55:48.351Z,16.30
2024-01-20T15:58:15.634Z,15.65
2024-01-20T16:00:43.111Z,21.02
2024-01-20T16:03:11.222Z,17.75
2024-01-20T16:05:38.965Z,16.50
2024-01-20T16:08:07.685Z,17.23
2024-01-20T16:10:35.751Z,15.10
2024-01-20T16:13:03.752Z,16.88
2024-01-20T16:15:31.187Z,17.60
2024-01-20T16:17:58.724Z,15.77
2024-01-20T16:20:28.061Z,18.05
2024-01-20T16:22:55.432Z,16.40
2024-01-20T16:25:22.767Z,18.20
2024-01-20T16:27:50.329Z,15.48
2024-01-20T16:30:17.883Z,12.60
2024-01-20T16:32:45.751Z,14.63
2024-01-20T16:35:13.093Z,17.25
2024-01-20T16:37:40.588Z,15.20
2024-01-20T16:40:08.363Z,16.38
2024-01-20T16:42:35.894Z,19.13
2024-01-20T16:45:03.415Z,18.60
2024-01-20T16:47:30.835Z,16.25
2024-01-20T16:49:58.435Z,15.30
2024-01-20T16:52:25.882Z,16.88
2024-01-20T16:54:53.342Z,21.00
2024-01-20T16:57:20.953Z,16.70
2024-01-20T16:59:51.078Z,18.27
2024-01-20T17:02:20.808Z,18.27
2024-01-20T17:04:48.418Z,18.05
2024-01-20T17:07:15.900Z,15.05
2024-01-20T17:09:44.122Z,21.45
2024-01-20T17:12:13.072Z,13.95
2024-01-20T17:14:42.173Z,19.52
2024-01-20T17:17:09.537Z,16.70
2024-01-20T17:19:37.137Z,17.00
2024-01-20T17:22:04.673Z,25.88
2024-01-20T17:24:34.988Z,20.52
2024-01-20T17:27:03.713Z,20.77
2024-01-20T17:29:31.448Z,21.40
2024-01-20T17:32:02.942Z,18.33
2024-01-20T17:34:30.631Z,18.17
2024-01-20T17:36:59.072Z,17.10
2024-01-20T17:39:26.741Z,20.40
2024-01-20T17:41:54.158Z,17.20
2024-01-20T17:44:22.166Z,14.57
2024-01-20T17:46:49.926Z,18.40
2024-01-20T17:49:17.432Z,19.15
2024-01-20T17:51:45.568Z,16.80
2024-01-20T17:54:13.327Z,15.55
2024-01-20T17:56:40.684Z,14.13
2024-01-20T17:59:08.086Z,17.42
2024-01-20T18:01:35.716Z,16.80
2024-01-20T18:04:03.324Z,17.17
2024-01-20T18:06:31.402Z,14.98
2024-01-20T18:08:58.930Z,13.40
2024-01-20T18:11:26.584Z,13.13
2024-01-20T18:13:56.223Z,16.00
2024-01-20T18:16:23.443Z,17.73
2024-01-20T18:18:50.946Z,15.35
2024-01-20T18:21:19.321Z,13.07
2024-01-20T18:23:47.029Z,16.13
2024-01-20T18:26:14.648Z,12.35
2024-01-20T18:28:42.134Z,15.73
2024-01-20T18:31:09.309Z,13.10
2024-01-20T18:33:36.929Z,13.65
2024-01-20T18:36:04.889Z,16.83
2024-01-20T18:38:32.725Z,13.00
2024-01-20T18:41:01.299Z,13.18
2024-01-20T18:43:28.608Z,12.95
2024-01-20T18:45:56.182Z,11.20
2024-01-20T18:48:23.636Z,11.55
2024-01-20T18:50:51.641Z,13.20
2024-01-20T18:53:18.982Z,14.73
2024-01-20T18:55:46.777Z,12.50
2024-01-20T18:58:14.204Z,14.20
2024-01-20T19:00:43.561Z,13.13
2024-01-20T19:03:11.092Z,15.50
2024-01-20T19:05:39.308Z,13.98
2024-01-20T19:08:06.848Z,15.05
2024-01-20T19:10:34.713Z,11.40
2024-01-20T19:13:02.181Z,12.35
2024-01-20T19:15:30.363Z,11.20
2024-01-20T19:17:58.273Z,9.95
2024-01-20T19:20:25.907Z,10.38
2024-01-20T19:22:53.366Z,14.23
2024-01-20T19:25:22.549Z,11.05
2024-01-20T19:27:52.244Z,12.57
2024-01-20T19:30:21.580Z,11.27
2024-01-20T19:32:50.259Z,10.32
2024-01-20T19:35:19.459Z,12.07
2024-01-20T19:37:46.787Z,10.80
2024-01-20T19:40:16.876Z,13.10
2024-01-20T19:42:44.511Z,12.02
2024-01-20T19:45:15.160Z,12.65
2024-01-20T19:47:43.881Z,16.13
2024-01-20T19:50:11.878Z,13.75
2024-01-20T19:52:39.561Z,12.68
2024-01-20T19:55:09.664Z,10.02
2024-01-20T19:57:37.406Z,14.80
2024-01-20T20:00:05.852Z,11.43
2024-01-20T20:02:34.556Z,13.52
2024-01-20T20:05:02.727Z,10.85
2024-01-20T20:07:30.535Z,11.63
2024-01-20T20:09:57.971Z,10.85
2024-01-20T20:12:29.476Z,15.57
2024-01-20T20:14:56.948Z,10.05
2024-01-20T20:17:24.501Z,8.57
2024-01-20T20:19:53.046Z,10.80
2024-01-20T20:22:22.584Z,9.38
2024-01-20T20:24:53.074Z,11.15
2024-01-20T20:27:21.211Z,11.60
2024-01-20T20:29:49.389Z,11.98
2024-01-20T20:32:22.044Z,10.65
2024-01-20T20:34:51.404Z,9.88
2024-01-20T20:37:22.813Z,9.85
2024-01-20T20:39:50.351Z,9.27
2024-01-20T20:42:23.277Z,9.73
2024-01-20T20:44:51.316Z,11.40
2024-01-20T20:47:18.635Z,8.57
2024-01-20T20:49:46.552Z,11.63
2024-01-20T20:52:13.915Z,11.07
2024-01-20T20:54:41.190Z,9.75
2024-01-20T20:57:10.139Z,11.43
2024-01-20T20:59:39.877Z,8.65
2024-01-20T21:02:08.637Z,11.18
2024-01-20T21:04:40.136Z,11.48
2024-01-20T21:07:08.544Z,11.90
2024-01-20T21:09:36.136Z,11.45
2024-01-20T21:12:03.522Z,9.40
2024-01-20T21:14:30.958Z,10.30
2024-01-20T21:17:00.962Z,11.75
2024-01-20T21:19:28.394Z,11.27
2024-01-20T21:21:56.069Z,8.48
2024-01-20T21:24:24.919Z,9.23
2024-01-20T21:26:52.301Z,11.60
2024-01-20T21:29:20.923Z,12.55
2024-01-20T21:31:48.271Z,12.27
2024-01-20T21:34:15.791Z,13.23
2024-01-20T21:36:43.260Z,12.00
2024-01-20T21:39:11.271Z,9.38
2024-01-20T21:41:38.631Z,10.98
2024-01-20T21:44:07.992Z,11.50
2024-01-20T21:46:37.086Z,9.60
2024-01-20T21:49:06.800Z,12.45
2024-01-20T21:51:34.166Z,11.52
2024-01-20T21:54:01.667Z,11.30
2024-01-20T21:56:29.060Z,12.90
2024-01-20T21:58:57.121Z,12.00
2024-01-20T22:01:24.549Z,12.05
2024-01-20T22:03:52.080Z,12.38
2024-01-20T22:06:19.676Z,12.95
2024-01-20T22:08:49.789Z,10.40
2024-01-20T22:11:17.159Z,11.07
2024-01-20T22:13:44.409Z,9.80
2024-01-20T22:16:11.738Z,9.63
2024-01-20T22:18:39.244Z,6.78
2024-01-20T22:21:12.740Z,7.78
2024-01-20T22:23:46.081Z,7.40
2024-01-20T22:26:18.047Z,7.95
2024-01-20T22:28:47.063Z,11.38
2024-01-20T22:31:15.138Z,12.35
2024-01-20T22:33:43.033Z,13.20
2024-01-20T22:36:10.506Z,7.70
2024-01-20T22:38:37.991Z,7.40
2024-01-20T22:41:08.371Z,7.95
2024-01-20T22:43:35.642Z,8.23
2024-01-20T22:46:04.886Z,9.93
2024-01-20T22:48:37.009Z,10.57
2024-01-20T22:51:05.273Z,9.10
2024-01-20T22:53:34.406Z,9.60
2024-01-20T22:56:02.346Z,9.02
2024-01-20T22:58:32.388Z,9.65
2024-01-20T23:00:59.860Z,10.35
2024-01-20T23:03:27.364Z,9.95
2024-01-20T23:05:54.859Z,8.20
2024-01-20T23:08:22.161Z,9.15
2024-01-20T23:10:50.034Z,8.88
2024-01-20T23:13:20.297Z,9.57
2024-01-20T23:15:48.357Z,8.70
2024-01-20T23:18:15.741Z,8.27
2024-01-20T23:20:43.968Z,11.15
2024-01-20T23:23:11.295Z,9.65
2024-01-20T23:25:38.802Z,11.00
2024-01-20T23:28:06.189Z,13.98
2024-01-20T23:30:33.616Z,11.43
2024-01-20T23:33:03.674Z,13.77
2024-01-20T23:35:31.870Z,12.80
2024-01-20T23:37:59.222Z,11.75
2024-01-20T23:40:27.417Z,14.15
2024-01-20T23:42:54.769Z,11.68
2024-01-20T23:45:22.268Z,10.38
2024-01-20T23:47:49.764Z,9.88
2024-01-20T23:50:17.169Z,10.05
2024-01-20T23:52:44.560Z,13.73
2024-01-20T23:55:11.886Z,10.52
2024-01-20T23:57:40.648Z,11.60
